createdAt,value
2019-03-26T00:04:39.713Z,1.00
2019-03-26T00:09:44.632Z,1.07
2019-03-26T00:14:49.622Z,1.03
2019-03-26T00:19:54.154Z,0.80
2019-03-26T00:24:59.777Z,1.12
2019-03-26T00:30:04.747Z,2.67
2019-03-26T00:35:12.434Z,1.23
2019-03-26T00:40:17.269Z,0.90
2019-03-26T00:45:22.579Z,0.70
2019-03-26T00:50:27.411Z,1.57
2019-03-26T00:55:32.181Z,1.60
2019-03-26T01:00:37.395Z,0.80
2019-03-26T01:05:41.939Z,0.82
2019-03-26T01:10:46.542Z,1.00
2019-03-26T01:15:53.513Z,0.90
2019-03-26T01:20:58.352Z,2.13
2019-03-26T01:26:03.616Z,1.12
2019-03-26T01:31:08.123Z,1.95
2019-03-26T01:36:13.215Z,1.20
2019-03-26T01:41:18.000Z,0.80
2019-03-26T01:46:24.245Z,2.30
2019-03-26T01:51:29.137Z,0.70
2019-03-26T01:56:34.349Z,0.73
2019-03-26T02:01:38.860Z,1.47
2019-03-26T02:06:44.460Z,0.93
2019-03-26T02:11:49.000Z,1.20
2019-03-26T02:16:55.674Z,1.33
2019-03-26T02:22:01.759Z,1.13
2019-03-26T02:27:07.431Z,0.87
2019-03-26T02:32:12.021Z,1.85
2019-03-26T02:37:17.013Z,3.65
2019-03-26T02:42:21.553Z,1.82
2019-03-26T02:47:27.130Z,1.90
2019-03-26T02:52:31.749Z,2.02
2019-03-26T02:57:36.751Z,1.20
2019-03-26T03:02:41.572Z,2.80
2019-03-26T03:07:46.323Z,1.50
2019-03-26T03:12:50.978Z,2.52
2019-03-26T03:17:56.437Z,2.37
2019-03-26T03:23:01.325Z,1.57
2019-03-26T03:28:10.023Z,3.13
2019-03-26T03:33:15.017Z,2.30
2019-03-26T03:38:20.638Z,2.70
2019-03-26T03:43:25.185Z,1.97
2019-03-26T03:48:30.109Z,3.00
2019-03-26T03:53:35.078Z,2.73
2019-03-26T03:58:40.527Z,1.50
2019-03-26T04:03:45.440Z,5.40
2019-03-26T04:08:51.247Z,1.80
2019-03-26T04:13:58.838Z,1.40
2019-03-26T04:19:03.728Z,1.17
2019-03-26T04:24:08.539Z,1.60
2019-03-26T04:29:13.724Z,1.50
2019-03-26T04:34:22.409Z,2.83
2019-03-26T04:39:25.668Z,2.60
2019-03-26T04:44:30.480Z,2.53
2019-03-26T04:49:35.456Z,1.80
2019-03-26T04:54:40.350Z,1.03
2019-03-26T04:59:45.949Z,1.20
2019-03-26T05:04:50.562Z,2.30
2019-03-26T05:09:55.554Z,4.10
2019-03-26T05:15:00.450Z,1.73
2019-03-26T05:20:06.617Z,1.10
2019-03-26T05:25:11.162Z,1.42
2019-03-26T05:30:16.796Z,1.60
2019-03-26T05:35:21.364Z,1.07
2019-03-26T05:40:27.308Z,1.43
2019-03-26T05:45:32.035Z,1.00
2019-03-26T05:50:39.215Z,0.90
2019-03-26T05:55:43.911Z,0.78
2019-03-26T06:00:48.796Z,2.13
2019-03-26T06:05:53.636Z,1.33
2019-03-26T06:10:58.338Z,1.32
2019-03-26T06:16:02.955Z,1.32
2019-03-26T06:21:07.924Z,1.37
2019-03-26T06:26:12.866Z,2.00
2019-03-26T06:31:17.776Z,1.23
2019-03-26T06:36:22.893Z,2.53
2019-03-26T06:41:27.650Z,4.35
2019-03-26T06:46:32.732Z,2.63
2019-03-26T06:51:37.570Z,4.00
2019-03-26T06:56:42.431Z,3.83
2019-03-26T07:01:47.053Z,6.37
2019-03-26T07:06:51.597Z,5.70
2019-03-26T07:11:56.162Z,3.62
2019-03-26T07:17:00.810Z,4.53
2019-03-26T07:22:05.775Z,7.17
2019-03-26T07:27:10.316Z,4.28
2019-03-26T07:32:14.914Z,5.58
2019-03-26T07:37:19.461Z,5.17
2019-03-26T07:42:24.020Z,9.18
2019-03-26T07:47:28.556Z,4.55
2019-03-26T07:52:33.231Z,8.10
2019-03-26T07:57:38.094Z,8.83
2019-03-26T08:02:42.910Z,11.00
2019-03-26T08:07:57.718Z,9.87
2019-03-26T08:12:54.008Z,8.18
2019-03-26T08:17:58.631Z,6.85
2019-03-26T08:23:03.497Z,5.63
2019-03-26T08:28:08.051Z,8.08
2019-03-26T08:33:12.991Z,7.60
2019-03-26T08:38:17.917Z,5.23
2019-03-26T08:43:22.772Z,4.80
2019-03-26T08:48:27.670Z,4.00
2019-03-26T08:53:32.687Z,4.70
2019-03-26T08:58:38.541Z,3.17
2019-03-26T09:03:43.355Z,7.53
2019-03-26T09:08:48.162Z,3.80
2019-03-26T09:13:52.997Z,6.70
2019-03-26T09:18:58.289Z,4.73
2019-03-26T09:24:03.114Z,4.00
2019-03-26T09:29:08.818Z,4.60
2019-03-26T09:34:13.655Z,3.57
2019-03-26T09:39:18.573Z,4.37
2019-03-26T09:44:23.388Z,3.00
2019-03-26T09:49:28.646Z,3.50
2019-03-26T09:54:33.504Z,4.00
2019-03-26T09:59:38.845Z,5.23
2019-03-26T10:04:43.645Z,3.83
2019-03-26T10:09:48.481Z,7.83
2019-03-26T10:14:53.358Z,5.57
2019-03-26T10:19:58.585Z,4.13
2019-03-26T10:25:03.497Z,4.70
2019-03-26T10:30:08.457Z,3.67
2019-03-26T10:35:13.478Z,4.30
2019-03-26T10:40:24.318Z,7.17
2019-03-26T10:45:29.113Z,4.37
2019-03-26T10:50:34.021Z,6.10
2019-03-26T10:55:38.837Z,2.83
2019-03-26T11:00:43.814Z,5.43
2019-03-26T11:05:48.706Z,7.37
2019-03-26T11:10:56.670Z,8.80
2019-03-26T11:16:01.550Z,4.87
2019-03-26T11:21:06.826Z,3.27
2019-03-26T11:26:11.658Z,5.63
2019-03-26T11:31:16.942Z,3.53
2019-03-26T11:36:21.743Z,2.30
2019-03-26T11:41:27.323Z,6.87
2019-03-26T11:46:32.113Z,6.53
2019-03-26T11:51:37.714Z,7.70
2019-03-26T11:56:42.498Z,3.73
2019-03-26T12:01:47.884Z,2.70
2019-03-26T12:06:52.693Z,6.40
2019-03-26T12:11:57.494Z,5.57
2019-03-26T12:17:02.704Z,6.47
2019-03-26T12:22:08.134Z,5.00
2019-03-26T12:27:12.966Z,6.53
2019-03-26T12:32:18.235Z,4.30
2019-03-26T12:37:23.109Z,4.33
2019-03-26T12:42:28.027Z,6.80
2019-03-26T12:47:32.838Z,3.70
2019-03-26T12:52:37.784Z,4.33
2019-03-26T12:57:42.701Z,3.97
2019-03-26T13:02:50.305Z,5.63
2019-03-26T13:07:55.097Z,6.13
2019-03-26T13:13:00.784Z,4.43
2019-03-26T13:18:06.821Z,4.53
2019-03-26T13:23:12.362Z,5.63
2019-03-26T13:28:17.379Z,4.80
2019-03-26T13:33:24.089Z,3.90
2019-03-26T13:38:28.903Z,4.60
2019-03-26T13:43:33.821Z,5.77
2019-03-26T13:48:38.787Z,2.33
2019-03-26T13:53:44.501Z,3.03
2019-03-26T13:58:49.382Z,4.97
2019-03-26T14:03:54.362Z,6.17
2019-03-26T14:08:59.280Z,4.83
2019-03-26T14:14:04.622Z,5.17
2019-03-26T14:19:09.506Z,2.57
2019-03-26T14:24:15.314Z,4.80
2019-03-26T14:29:20.198Z,3.77
2019-03-26T14:34:25.844Z,6.30
2019-03-26T14:39:30.644Z,2.67
2019-03-26T14:44:35.545Z,4.20
2019-03-26T14:49:40.366Z,4.23
2019-03-26T14:54:45.239Z,3.47
2019-03-26T14:59:50.225Z,2.40
2019-03-26T15:04:58.210Z,5.40
2019-03-26T15:10:03.085Z,4.53
2019-03-26T15:15:08.059Z,2.17
2019-03-26T15:20:13.008Z,3.60
2019-03-26T15:25:18.650Z,4.27
2019-03-26T15:30:23.465Z,2.93
2019-03-26T15:35:28.858Z,3.33
2019-03-26T15:40:33.672Z,3.30
2019-03-26T15:45:38.750Z,3.90
2019-03-26T15:50:44.189Z,2.77
2019-03-26T15:55:49.085Z,2.93
2019-03-26T16:00:53.906Z,4.43
2019-03-26T16:05:59.841Z,4.77
2019-03-26T16:11:04.660Z,4.23
2019-03-26T16:16:10.486Z,4.33
2019-03-26T16:21:15.509Z,2.90
2019-03-26T16:26:21.598Z,2.77
2019-03-26T16:31:26.417Z,4.07
2019-03-26T16:36:32.490Z,5.53
2019-03-26T16:41:48.497Z,3.67
2019-03-26T16:46:45.491Z,3.50
2019-03-26T16:51:50.554Z,3.10
2019-03-26T16:56:56.847Z,2.30
2019-03-26T17:02:02.665Z,5.73
2019-03-26T17:07:07.778Z,2.67
2019-03-26T17:12:12.616Z,2.63
2019-03-26T17:17:18.408Z,5.67
2019-03-26T17:22:23.201Z,5.93
2019-03-26T17:27:29.493Z,5.40
2019-03-26T17:32:34.336Z,3.37
2019-03-26T17:37:40.366Z,5.83
2019-03-26T17:42:45.947Z,3.77
2019-03-26T17:47:52.065Z,3.97
2019-03-26T17:52:56.874Z,4.07
2019-03-26T17:58:02.998Z,4.47
2019-03-26T18:03:07.876Z,6.70
2019-03-26T18:08:14.174Z,8.97
2019-03-26T18:13:19.031Z,5.07
2019-03-26T18:18:25.141Z,5.73
2019-03-26T18:23:29.990Z,6.37
2019-03-26T18:28:36.057Z,3.93
2019-03-26T18:33:41.025Z,5.60
2019-03-26T18:38:46.493Z,5.40
2019-03-26T18:43:51.314Z,6.30
2019-03-26T18:48:56.270Z,4.80
2019-03-26T18:54:00.866Z,4.53
2019-03-26T18:59:06.182Z,4.77
2019-03-26T19:04:11.226Z,4.37
2019-03-26T19:09:16.378Z,5.93
2019-03-26T19:14:21.256Z,4.93
2019-03-26T19:19:26.211Z,4.70
2019-03-26T19:24:30.728Z,4.50
2019-03-26T19:29:35.601Z,5.77
2019-03-26T19:34:40.444Z,5.43
2019-03-26T19:39:44.999Z,5.40
2019-03-26T19:44:49.634Z,2.65
2019-03-26T19:49:55.205Z,3.97
2019-03-26T19:55:00.997Z,6.50
2019-03-26T20:00:07.718Z,2.47
2019-03-26T20:05:12.302Z,7.37
2019-03-26T20:10:17.402Z,4.10
2019-03-26T20:15:22.117Z,5.40
2019-03-26T20:20:27.154Z,5.65
2019-03-26T20:25:32.461Z,7.17
2019-03-26T20:30:38.787Z,4.15
2019-03-26T20:35:43.339Z,4.42
2019-03-26T20:40:49.017Z,4.80
2019-03-26T20:45:54.621Z,8.90
2019-03-26T20:56:13.994Z,4.47
2019-03-26T21:01:19.966Z,5.60
2019-03-26T21:06:24.939Z,6.10
2019-03-26T21:11:30.385Z,10.53
2019-03-26T21:16:35.194Z,5.03
2019-03-26T21:21:40.375Z,7.33
2019-03-26T21:26:45.181Z,8.83
2019-03-26T21:31:50.160Z,4.60
2019-03-26T21:36:54.680Z,5.45
2019-03-26T21:41:59.473Z,5.67
2019-03-26T21:47:05.367Z,7.60
2019-03-26T21:52:09.881Z,5.87
2019-03-26T21:57:14.455Z,4.08
2019-03-26T22:02:19.609Z,7.10
2019-03-26T22:07:24.153Z,5.40
2019-03-26T22:12:29.165Z,5.60
2019-03-26T22:17:34.785Z,5.55
2019-03-26T22:22:40.482Z,5.97
2019-03-26T22:27:46.093Z,6.40
2019-03-26T22:32:52.989Z,5.37
2019-03-26T22:37:57.561Z,5.53
2019-03-26T22:43:02.811Z,4.90
2019-03-26T22:48:07.581Z,4.47
2019-03-26T22:53:12.104Z,5.00
2019-03-26T22:58:16.622Z,6.05
2019-03-26T23:03:22.345Z,6.12
2019-03-26T23:08:26.893Z,8.75
2019-03-26T23:13:32.442Z,8.68
2019-03-26T23:18:37.045Z,4.55
2019-03-26T23:23:43.253Z,5.00
2019-03-26T23:28:48.083Z,5.30
2019-03-26T23:33:53.700Z,6.95
2019-03-26T23:38:58.213Z,4.70
2019-03-26T23:44:04.298Z,4.28
2019-03-26T23:49:09.205Z,4.10
2019-03-26T23:54:14.418Z,9.87
2019-03-26T23:59:18.938Z,6.97
